createdAt,value
2019-02-14T00:02:15.454Z,83.31
2019-02-14T00:04:46.345Z,85.16
2019-02-14T00:07:17.210Z,84.95
2019-02-14T00:09:48.044Z,86.11
2019-02-14T00:12:19.749Z,86.21
2019-02-14T00:14:50.595Z,86.91
2019-02-14T00:17:21.689Z,88.81
2019-02-14T00:19:52.578Z,88.54
2019-02-14T00:22:23.558Z,87.49
2019-02-14T00:24:54.414Z,88.03
2019-02-14T00:27:25.371Z,88.69
2019-02-14T00:29:56.226Z,85.60
2019-02-14T00:32:27.260Z,85.14
2019-02-14T00:34:58.104Z,84.30
2019-02-14T00:37:28.943Z,86.08
2019-02-14T00:39:59.820Z,88.17
2019-02-14T00:42:30.666Z,88.06
2019-02-14T00:45:01.523Z,87.97
2019-02-14T00:47:32.460Z,88.37
2019-02-14T00:50:03.335Z,88.96
2019-02-14T00:52:36.766Z,87.86
2019-02-14T00:55:07.660Z,87.71
2019-02-14T00:57:38.616Z,88.04
2019-02-14T01:00:10.574Z,87.99
2019-02-14T01:02:41.492Z,88.16
2019-02-14T01:05:12.348Z,88.30
2019-02-14T01:07:43.202Z,87.80
2019-02-14T01:10:14.184Z,86.97
2019-02-14T01:12:45.644Z,87.34
2019-02-14T01:15:18.139Z,87.46
2019-02-14T01:17:49.517Z,88.85
2019-02-14T01:20:20.381Z,88.84
2019-02-14T01:22:51.228Z,88.56
2019-02-14T01:25:22.125Z,88.36
2019-02-14T01:27:52.971Z,88.95
2019-02-14T01:30:23.809Z,88.37
2019-02-14T01:32:54.743Z,88.43
2019-02-14T01:35:25.586Z,88.98
2019-02-14T01:37:56.432Z,89.44
2019-02-14T01:40:27.389Z,87.44
2019-02-14T01:42:58.234Z,86.09
2019-02-14T01:45:29.076Z,86.72
2019-02-14T01:48:00.026Z,87.20
2019-02-14T01:50:30.880Z,89.33
2019-02-14T01:53:01.721Z,90.86
2019-02-14T01:55:32.689Z,90.94
2019-02-14T01:58:06.434Z,91.12
2019-02-14T02:00:37.393Z,90.86
2019-02-14T02:03:08.420Z,91.51
2019-02-14T02:05:39.272Z,90.74
2019-02-14T02:08:10.131Z,89.28
2019-02-14T02:10:41.014Z,89.62
2019-02-14T02:13:11.967Z,87.07
2019-02-14T02:15:42.826Z,87.61
2019-02-14T02:18:13.760Z,88.31
2019-02-14T02:20:44.606Z,88.63
2019-02-14T02:23:15.444Z,88.39
2019-02-14T02:25:46.324Z,88.45
2019-02-14T02:28:17.180Z,88.21
2019-02-14T02:30:48.032Z,89.30
2019-02-14T02:33:18.975Z,89.59
2019-02-14T02:35:49.811Z,89.92
2019-02-14T02:38:20.650Z,91.24
2019-02-14T02:40:51.539Z,90.33
2019-02-14T02:43:22.576Z,90.73
2019-02-14T02:45:53.419Z,90.69
2019-02-14T02:48:24.359Z,89.58
2019-02-14T02:50:55.206Z,89.48
2019-02-14T02:53:27.119Z,89.76
2019-02-14T02:55:58.017Z,90.76
2019-02-14T02:58:28.992Z,91.80
2019-02-14T03:00:59.817Z,91.46
2019-02-14T03:03:30.751Z,91.43
2019-02-14T03:06:10.258Z,91.33
2019-02-14T03:08:34.142Z,91.90
2019-02-14T03:11:05.030Z,91.88
2019-02-14T03:13:35.879Z,92.38
2019-02-14T03:16:06.732Z,93.63
2019-02-14T03:18:37.678Z,92.21
2019-02-14T03:21:08.525Z,91.97
2019-02-14T03:23:39.374Z,94.72
2019-02-14T03:26:10.275Z,95.90
2019-02-14T03:28:41.124Z,96.33
2019-02-14T03:31:12.004Z,96.82
2019-02-14T03:33:42.850Z,96.66
2019-02-14T03:36:19.262Z,97.02
2019-02-14T03:38:46.324Z,96.88
2019-02-14T03:41:17.175Z,96.79
2019-02-14T03:43:48.258Z,96.34
2019-02-14T03:46:19.127Z,97.19
2019-02-14T03:48:49.976Z,98.75
2019-02-14T03:51:24.386Z,99.34
2019-02-14T03:53:55.361Z,98.42
2019-02-14T03:56:26.202Z,96.81
2019-02-14T03:58:57.153Z,95.60
2019-02-14T04:01:28.053Z,94.95
2019-02-14T04:03:58.902Z,93.78
2019-02-14T04:06:29.758Z,91.03
2019-02-14T04:09:01.235Z,91.55
2019-02-14T04:11:32.598Z,92.58
2019-02-14T04:14:03.457Z,91.85
2019-02-14T04:16:34.332Z,92.40
2019-02-14T04:19:05.271Z,91.96
2019-02-14T04:21:36.137Z,92.92
2019-02-14T04:24:07.061Z,93.94
2019-02-14T04:26:37.985Z,94.29
2019-02-14T04:29:08.835Z,94.47
2019-02-14T04:31:39.725Z,94.85
2019-02-14T04:34:10.585Z,96.37
2019-02-14T04:36:41.430Z,95.79
2019-02-14T04:39:12.376Z,94.62
2019-02-14T04:41:43.209Z,94.31
2019-02-14T04:44:14.083Z,94.86
2019-02-14T04:46:44.979Z,94.07
2019-02-14T04:49:15.818Z,90.90
2019-02-14T04:51:46.683Z,91.44
2019-02-14T04:54:17.623Z,91.09
2019-02-14T04:56:48.476Z,90.78
2019-02-14T04:59:20.343Z,91.76
2019-02-14T05:01:51.243Z,93.03
2019-02-14T05:04:22.099Z,93.23
2019-02-14T05:06:52.947Z,95.18
2019-02-14T05:09:24.021Z,96.95
2019-02-14T05:11:54.865Z,96.26
2019-02-14T05:14:25.712Z,96.40
2019-02-14T05:16:56.600Z,95.76
2019-02-14T05:19:27.451Z,94.12
2019-02-14T05:21:58.302Z,92.96
2019-02-14T05:24:29.255Z,93.91
2019-02-14T05:27:00.347Z,91.87
2019-02-14T05:29:31.229Z,91.76
2019-02-14T05:32:02.116Z,90.67
2019-02-14T05:34:32.987Z,90.53
2019-02-14T05:37:03.851Z,90.42
2019-02-14T05:39:34.871Z,89.04
2019-02-14T05:42:05.822Z,89.65
2019-02-14T05:44:36.674Z,89.75
2019-02-14T05:47:07.585Z,89.31
2019-02-14T05:49:38.495Z,88.65
2019-02-14T05:52:09.420Z,86.66
2019-02-14T05:54:40.440Z,84.82
2019-02-14T05:57:11.358Z,84.17
2019-02-14T05:59:42.633Z,84.63
2019-02-14T06:02:14.212Z,85.69
2019-02-14T06:04:45.066Z,86.34
2019-02-14T06:07:15.912Z,87.93
2019-02-14T06:09:46.801Z,86.42
2019-02-14T06:12:17.670Z,83.22
2019-02-14T06:14:48.512Z,84.55
2019-02-14T06:17:19.401Z,84.84
2019-02-14T06:19:50.732Z,86.84
2019-02-14T06:22:21.684Z,87.99
2019-02-14T06:24:52.572Z,87.52
2019-02-14T06:27:23.515Z,89.55
2019-02-14T06:29:54.433Z,89.16
2019-02-14T06:32:25.724Z,86.10
2019-02-14T06:34:56.718Z,82.36
2019-02-14T06:37:27.572Z,81.21
2019-02-14T06:39:58.468Z,79.86
2019-02-14T06:42:29.320Z,79.15
2019-02-14T06:45:00.307Z,79.02
2019-02-14T06:47:31.248Z,77.00
2019-02-14T06:50:02.086Z,75.71
2019-02-14T06:52:32.936Z,75.89
2019-02-14T06:55:03.826Z,76.45
2019-02-14T06:57:34.673Z,77.33
2019-02-14T07:00:06.678Z,77.18
2019-02-14T07:02:37.558Z,77.20
2019-02-14T07:05:08.775Z,77.99
2019-02-14T07:07:39.761Z,77.93
2019-02-14T07:10:10.664Z,76.55
2019-02-14T07:12:41.502Z,77.39
2019-02-14T07:15:12.629Z,77.30
2019-02-14T07:17:43.534Z,77.08
2019-02-14T07:20:14.898Z,76.42
2019-02-14T07:22:45.747Z,76.59
2019-02-14T07:25:16.626Z,75.51
2019-02-14T07:27:47.479Z,76.20
2019-02-14T07:30:20.035Z,75.68
2019-02-14T07:32:50.963Z,75.49
2019-02-14T07:35:21.938Z,75.15
2019-02-14T07:37:52.833Z,74.51
2019-02-14T07:40:26.051Z,73.20
2019-02-14T07:42:56.897Z,72.69
2019-02-14T07:45:27.781Z,73.92
2019-02-14T07:47:58.637Z,75.05
2019-02-14T07:50:29.469Z,75.03
2019-02-14T07:53:00.353Z,74.01
2019-02-14T07:55:31.199Z,74.41
2019-02-14T07:58:02.095Z,74.98
2019-02-14T08:00:33.944Z,75.64
2019-02-14T08:03:04.798Z,74.97
2019-02-14T08:05:35.643Z,75.42
2019-02-14T08:08:06.534Z,75.37
2019-02-14T08:10:37.395Z,75.36
2019-02-14T08:13:08.239Z,75.72
2019-02-14T08:15:39.122Z,75.77
2019-02-14T08:18:09.964Z,74.51
2019-02-14T08:20:40.800Z,75.34
2019-02-14T08:23:11.684Z,73.96
2019-02-14T08:25:42.525Z,72.87
2019-02-14T08:28:13.370Z,72.60
2019-02-14T08:30:44.254Z,72.64
2019-02-14T08:33:15.099Z,71.63
2019-02-14T08:35:45.942Z,71.61
2019-02-14T08:38:16.817Z,71.79
2019-02-14T08:40:47.659Z,69.90
2019-02-14T08:43:18.708Z,70.25
2019-02-14T08:45:49.838Z,70.34
2019-02-14T08:48:20.685Z,70.46
2019-02-14T08:50:51.591Z,70.15
2019-02-14T08:53:22.418Z,69.98
2019-02-14T08:55:53.259Z,69.15
2019-02-14T08:58:24.136Z,69.83
2019-02-14T09:00:56.141Z,67.69
2019-02-14T09:03:27.118Z,67.06
2019-02-14T09:05:58.001Z,67.29
2019-02-14T09:08:28.832Z,65.67
2019-02-14T09:10:59.665Z,64.37
2019-02-14T09:13:30.592Z,65.47
2019-02-14T09:16:01.432Z,64.68
2019-02-14T09:18:32.271Z,63.50
2019-02-14T09:21:03.150Z,63.31
2019-02-14T09:23:33.992Z,63.83
2019-02-14T09:26:04.838Z,65.63
2019-02-14T09:28:35.728Z,64.57
2019-02-14T09:31:06.885Z,64.16
2019-02-14T09:33:37.738Z,62.52
2019-02-14T09:36:08.778Z,62.28
2019-02-14T09:38:39.597Z,62.19
2019-02-14T09:41:10.440Z,62.10
2019-02-14T09:43:41.320Z,63.06
2019-02-14T09:46:12.163Z,63.13
2019-02-14T09:48:42.985Z,62.75
2019-02-14T09:51:13.878Z,62.22
2019-02-14T09:53:44.755Z,62.90
2019-02-14T09:56:15.584Z,62.13
2019-02-14T09:58:46.460Z,62.49
2019-02-14T10:01:18.420Z,63.91
2019-02-14T10:03:49.299Z,62.92
2019-02-14T10:06:20.151Z,58.42
2019-02-14T10:08:50.990Z,58.58
2019-02-14T10:11:21.894Z,58.52
2019-02-14T10:13:52.704Z,57.82
2019-02-14T10:16:23.809Z,56.96
2019-02-14T10:18:54.690Z,56.06
2019-02-14T10:21:25.551Z,53.96
2019-02-14T10:23:56.390Z,56.05
2019-02-14T10:26:27.265Z,54.67
2019-02-14T10:28:58.108Z,54.33
2019-02-14T10:31:28.954Z,53.92
2019-02-14T10:33:59.819Z,53.24
2019-02-14T10:36:30.648Z,52.80
2019-02-14T10:39:01.520Z,53.29
2019-02-14T10:41:32.341Z,53.37
2019-02-14T10:44:03.166Z,53.95
2019-02-14T10:46:35.655Z,54.25
2019-02-14T10:49:06.658Z,55.67
2019-02-14T10:51:37.483Z,54.09
2019-02-14T10:54:08.425Z,54.21
2019-02-14T10:56:39.281Z,53.18
2019-02-14T10:59:10.130Z,52.70
2019-02-14T11:01:41.996Z,52.80
2019-02-14T11:04:12.816Z,53.81
2019-02-14T11:06:43.665Z,51.65
2019-02-14T11:09:15.108Z,52.78
2019-02-14T11:11:45.950Z,52.75
2019-02-14T11:14:16.881Z,53.49
2019-02-14T11:16:47.757Z,52.11
2019-02-14T11:19:18.596Z,53.59
2019-02-14T11:21:49.434Z,53.21
2019-02-14T11:24:20.312Z,53.40
2019-02-14T11:26:51.168Z,54.22
2019-02-14T11:29:22.000Z,53.68
2019-02-14T11:31:52.880Z,51.11
2019-02-14T11:34:23.736Z,52.96
2019-02-14T11:36:54.575Z,54.41
2019-02-14T11:39:25.453Z,53.13
2019-02-14T11:41:56.289Z,51.58
2019-02-14T11:44:27.169Z,51.93
2019-02-14T11:46:58.014Z,53.52
2019-02-14T11:49:28.843Z,53.80
2019-02-14T11:51:59.719Z,54.20
2019-02-14T11:54:30.560Z,54.04
2019-02-14T11:57:01.406Z,51.82
2019-02-14T11:59:32.290Z,52.07
2019-02-14T12:02:04.151Z,51.69
2019-02-14T12:04:35.041Z,51.69
2019-02-14T12:07:05.883Z,49.08
2019-02-14T12:09:36.732Z,49.51
2019-02-14T12:12:07.705Z,48.69
2019-02-14T12:14:38.548Z,49.67
2019-02-14T12:17:09.399Z,50.00
2019-02-14T12:19:40.275Z,50.37
2019-02-14T12:22:11.203Z,49.11
2019-02-14T12:24:42.045Z,48.05
2019-02-14T12:27:12.919Z,49.74
2019-02-14T12:29:43.767Z,50.04
2019-02-14T12:32:14.616Z,48.56
2019-02-14T12:34:45.622Z,48.25
2019-02-14T12:37:16.738Z,47.88
2019-02-14T12:39:47.589Z,47.47
2019-02-14T12:42:18.471Z,48.06
2019-02-14T12:44:49.327Z,46.82
2019-02-14T12:47:20.203Z,44.67
2019-02-14T12:49:51.034Z,43.14
2019-02-14T12:52:21.961Z,41.20
2019-02-14T12:54:52.825Z,39.67
2019-02-14T12:57:23.733Z,37.67
2019-02-14T12:59:54.564Z,40.48
2019-02-14T13:02:26.447Z,38.96
2019-02-14T13:04:57.404Z,40.29
2019-02-14T13:07:28.313Z,41.99
2019-02-14T13:09:59.198Z,41.18
2019-02-14T13:12:30.046Z,41.54
2019-02-14T13:15:00.905Z,40.06
2019-02-14T13:17:31.787Z,39.10
2019-02-14T13:20:02.635Z,39.82
2019-02-14T13:22:33.636Z,38.67
2019-02-14T13:25:07.981Z,40.10
2019-02-14T13:27:38.791Z,37.30
2019-02-14T13:30:12.455Z,38.37
2019-02-14T13:32:43.645Z,38.52
2019-02-14T13:35:14.694Z,39.33
2019-02-14T13:37:45.540Z,37.22
2019-02-14T13:40:16.446Z,35.42
2019-02-14T13:42:47.279Z,35.01
2019-02-14T13:45:19.952Z,34.69
2019-02-14T13:47:50.828Z,33.90
2019-02-14T13:50:21.667Z,33.65
2019-02-14T13:52:52.514Z,31.90
2019-02-14T13:55:23.395Z,30.04
2019-02-14T13:57:54.246Z,31.02
2019-02-14T14:00:26.925Z,31.66
2019-02-14T14:02:58.857Z,31.67
2019-02-14T14:05:32.404Z,29.78
2019-02-14T14:08:06.142Z,31.01
2019-02-14T14:10:36.997Z,30.58
2019-02-14T14:13:07.840Z,28.54
2019-02-14T14:15:38.766Z,28.40
2019-02-14T14:18:09.629Z,27.20
2019-02-14T14:20:40.486Z,27.15
2019-02-14T14:23:11.778Z,29.63
2019-02-14T14:25:42.640Z,29.60
2019-02-14T14:28:13.494Z,31.19
2019-02-14T14:30:44.378Z,33.89
2019-02-14T14:33:15.213Z,35.13
2019-02-14T14:35:46.067Z,38.07
2019-02-14T14:38:17.106Z,38.83
2019-02-14T14:40:47.966Z,40.53
2019-02-14T14:43:32.024Z,42.76
2019-02-14T14:46:21.382Z,44.24
2019-02-14T14:48:52.275Z,42.62
2019-02-14T14:51:23.111Z,44.35
2019-02-14T14:53:54.014Z,44.57
2019-02-14T14:56:29.170Z,44.87
2019-02-14T14:59:00.009Z,45.90
2019-02-14T15:01:30.908Z,45.66
2019-02-14T15:04:01.886Z,45.89
2019-02-14T15:06:32.699Z,47.07
2019-02-14T15:09:05.398Z,46.37
2019-02-14T15:11:36.250Z,47.27
2019-02-14T15:14:07.114Z,47.09
2019-02-14T15:16:38.071Z,46.44
2019-02-14T15:19:08.934Z,47.25
2019-02-14T15:21:39.989Z,48.13
2019-02-14T15:24:11.012Z,48.62
2019-02-14T15:26:41.868Z,50.18
2019-02-14T15:29:12.736Z,49.23
2019-02-14T15:31:43.688Z,49.36
2019-02-14T15:34:14.631Z,50.02
2019-02-14T15:36:46.897Z,49.83
2019-02-14T15:39:18.392Z,51.52
2019-02-14T15:41:49.377Z,50.36
2019-02-14T15:44:20.253Z,51.22
2019-02-14T15:46:51.336Z,51.66
2019-02-14T15:49:23.053Z,52.44
2019-02-14T15:51:54.854Z,54.28
2019-02-14T15:54:25.855Z,54.42
2019-02-14T15:56:56.736Z,57.34
2019-02-14T15:59:28.900Z,56.88
2019-02-14T16:02:00.201Z,57.21
2019-02-14T16:04:31.399Z,58.83
2019-02-14T16:07:02.313Z,58.03
2019-02-14T16:09:36.541Z,57.19
2019-02-14T16:12:08.074Z,56.47
2019-02-14T16:14:40.671Z,59.25
2019-02-14T16:17:13.637Z,60.19
2019-02-14T16:19:44.306Z,62.78
2019-02-14T16:22:15.820Z,61.96
2019-02-14T16:24:52.498Z,58.50
2019-02-14T16:27:26.878Z,59.19
2019-02-14T16:29:57.947Z,59.02
2019-02-14T16:32:29.234Z,57.94
2019-02-14T16:35:03.322Z,61.46
2019-02-14T16:37:34.536Z,62.91
2019-02-14T16:40:10.662Z,63.09
2019-02-14T16:42:44.972Z,61.93
2019-02-14T16:45:15.881Z,63.61
2019-02-14T16:47:47.383Z,64.06
2019-02-14T16:50:18.309Z,64.93
2019-02-14T16:52:49.164Z,63.81
2019-02-14T16:55:20.058Z,67.40
2019-02-14T16:57:50.942Z,66.06
2019-02-14T17:00:21.894Z,63.11
2019-02-14T17:02:52.875Z,63.70
2019-02-14T17:05:23.818Z,64.91
2019-02-14T17:07:56.109Z,62.95
2019-02-14T17:10:36.646Z,63.83
2019-02-14T17:13:00.998Z,65.68
2019-02-14T17:15:31.908Z,66.33
2019-02-14T17:18:02.877Z,66.58
2019-02-14T17:20:33.766Z,66.86
2019-02-14T17:23:04.617Z,69.85
2019-02-14T17:25:35.523Z,69.20
2019-02-14T17:28:06.385Z,70.31
2019-02-14T17:30:37.254Z,67.43
2019-02-14T17:33:08.271Z,70.43
2019-02-14T17:35:39.189Z,70.23
2019-02-14T17:38:10.094Z,68.45
2019-02-14T17:40:46.090Z,65.28
2019-02-14T17:43:14.085Z,67.29
2019-02-14T17:45:45.116Z,67.02
2019-02-14T17:48:17.372Z,64.86
2019-02-14T17:50:48.251Z,63.89
2019-02-14T17:53:19.112Z,65.04
2019-02-14T17:55:50.004Z,67.24
2019-02-14T17:58:20.871Z,66.82
2019-02-14T18:00:51.973Z,65.57
2019-02-14T18:03:22.906Z,65.67
2019-02-14T18:05:53.772Z,62.26
2019-02-14T18:08:24.622Z,64.93
2019-02-14T18:10:56.543Z,67.05
2019-02-14T18:13:27.505Z,67.50
2019-02-14T18:15:58.414Z,66.83
2019-02-14T18:18:29.513Z,69.72
2019-02-14T18:21:00.391Z,70.19
2019-02-14T18:23:31.264Z,69.32
2019-02-14T18:26:02.232Z,68.45
2019-02-14T18:28:33.412Z,69.56
2019-02-14T18:31:04.400Z,70.64
2019-02-14T18:33:35.355Z,69.46
2019-02-14T18:36:06.352Z,69.74
2019-02-14T18:38:37.331Z,68.40
2019-02-14T18:41:08.302Z,69.10
2019-02-14T18:43:39.254Z,71.30
2019-02-14T18:46:10.154Z,74.93
2019-02-14T18:48:41.330Z,76.06
2019-02-14T18:51:12.335Z,76.78
2019-02-14T18:53:43.469Z,76.35
2019-02-14T18:56:14.684Z,75.62
2019-02-14T18:58:45.914Z,76.14
2019-02-14T19:01:16.837Z,75.50
2019-02-14T19:03:48.069Z,76.77
2019-02-14T19:06:19.244Z,78.40
2019-02-14T19:08:50.345Z,78.80
2019-02-14T19:11:22.865Z,79.13
2019-02-14T19:13:54.439Z,77.19
2019-02-14T19:16:25.518Z,77.58
2019-02-14T19:18:58.734Z,79.76
2019-02-14T19:21:29.756Z,79.55
2019-02-14T19:24:00.854Z,80.66
2019-02-14T19:26:31.979Z,81.13
2019-02-14T19:29:02.997Z,82.40
2019-02-14T19:31:34.281Z,84.85
2019-02-14T19:34:05.508Z,84.61
2019-02-14T19:36:36.446Z,85.85
2019-02-14T19:39:07.412Z,86.93
2019-02-14T19:41:38.502Z,87.80
2019-02-14T19:44:09.633Z,88.19
2019-02-14T19:46:40.597Z,85.63
2019-02-14T19:49:11.865Z,82.19
2019-02-14T19:51:42.898Z,79.69
2019-02-14T19:54:13.999Z,77.65
2019-02-14T19:56:44.947Z,79.27
2019-02-14T19:59:15.924Z,76.23
2019-02-14T20:01:47.180Z,75.65
2019-02-14T20:04:20.047Z,74.68
2019-02-14T20:06:51.310Z,76.50
2019-02-14T20:09:22.602Z,77.81
2019-02-14T20:11:53.866Z,79.09
2019-02-14T20:14:24.899Z,79.22
2019-02-14T20:16:56.227Z,79.65
2019-02-14T20:19:29.796Z,82.64
2019-02-14T20:22:05.112Z,79.81
2019-02-14T20:24:36.475Z,78.30
2019-02-14T20:27:07.480Z,80.02
2019-02-14T20:29:39.779Z,81.19
2019-02-14T20:32:11.471Z,82.05
2019-02-14T20:34:42.575Z,82.92
2019-02-14T20:37:13.565Z,81.35
2019-02-14T20:39:44.567Z,80.39
2019-02-14T20:42:15.481Z,76.79
2019-02-14T20:44:46.499Z,77.31
2019-02-14T20:47:17.481Z,78.23
2019-02-14T20:49:48.472Z,77.79
2019-02-14T20:52:19.394Z,76.93
2019-02-14T20:54:50.410Z,78.20
2019-02-14T20:57:21.356Z,78.89
2019-02-14T21:00:20.428Z,77.89
2019-02-14T21:03:10.882Z,72.33
2019-02-14T21:06:05.992Z,71.73
2019-02-14T21:08:54.938Z,74.97
2019-02-14T21:11:43.984Z,76.44
2019-02-14T21:14:32.790Z,78.42
2019-02-14T21:17:22.394Z,75.33
2019-02-14T21:20:11.883Z,76.27
2019-02-14T21:23:01.461Z,75.00
2019-02-14T21:25:50.842Z,74.64
2019-02-14T21:28:40.098Z,74.80
2019-02-14T21:31:29.438Z,74.02
2019-02-14T21:34:18.730Z,75.28
2019-02-14T21:37:08.102Z,76.77
2019-02-14T21:39:57.782Z,77.38
2019-02-14T21:42:47.521Z,78.72
2019-02-14T21:45:37.059Z,79.63
2019-02-14T21:48:26.239Z,79.78
2019-02-14T21:51:15.782Z,81.91
2019-02-14T21:54:05.018Z,81.88
2019-02-14T21:56:54.234Z,79.52
2019-02-14T21:59:43.644Z,80.67
2019-02-14T22:02:32.352Z,82.20
2019-02-14T22:05:24.975Z,81.00
2019-02-14T22:08:13.346Z,79.85
2019-02-14T22:11:02.556Z,80.37
2019-02-14T22:13:51.465Z,81.02
2019-02-14T22:16:40.937Z,81.97
2019-02-14T22:19:30.672Z,81.95
2019-02-14T22:22:20.293Z,84.01
2019-02-14T22:25:09.961Z,83.88
2019-02-14T22:27:59.201Z,84.92
2019-02-14T22:30:48.636Z,84.56
2019-02-14T22:33:37.896Z,84.59
2019-02-14T22:36:26.945Z,84.82
2019-02-14T22:39:19.460Z,84.65
2019-02-14T22:42:09.029Z,84.54
2019-02-14T22:44:58.142Z,84.89
2019-02-14T22:47:47.832Z,84.29
2019-02-14T22:50:37.121Z,83.42
2019-02-14T22:53:26.688Z,83.63
2019-02-14T22:56:15.994Z,84.18
2019-02-14T22:59:05.214Z,84.58
2019-02-14T23:01:54.477Z,84.40
2019-02-14T23:04:44.244Z,84.25
2019-02-14T23:07:37.600Z,83.94
2019-02-14T23:10:26.955Z,84.56
2019-02-14T23:13:16.326Z,85.45
2019-02-14T23:16:08.011Z,85.21
2019-02-14T23:18:57.386Z,85.08
2019-02-14T23:21:46.578Z,84.61
2019-02-14T23:24:36.038Z,84.49
2019-02-14T23:27:25.620Z,84.36
2019-02-14T23:30:15.690Z,83.31
2019-02-14T23:33:08.838Z,83.57
2019-02-14T23:35:59.044Z,84.15
2019-02-14T23:38:48.041Z,83.88
2019-02-14T23:41:36.808Z,83.85
2019-02-14T23:44:26.547Z,84.23
2019-02-14T23:47:16.259Z,84.64
2019-02-14T23:50:06.901Z,85.01
2019-02-14T23:52:56.786Z,84.51
2019-02-14T23:55:51.635Z,85.17
2019-02-14T23:58:41.481Z,84.71
